Nautilus Survey — LIXR — position and weather

sailwx.info

Track history (hours):
 
Tides and Currents Weather Stations Pressure Air Temp Water Temp Dewpoint Dewpoint Depression Visibility Wind Speed Wind Dir Waves Ship Positions

Nautilus Survey

Last reported at 2017-Jul-28 15:00 UTC. Time now 2017-Jul-28 15:09 UTC.
Position N 69°38' E 018°53'.

Length 24 m; draft 2 m.

Type: Dredging. MMSI: 259464000.

Date/timePositionNaut miles runAvg speedWind from/ knotsBaromVisibWave heightAir tempDewpointWater temp
2017-Jul-28 15:00N 69°38' E 018°53'3 6.8
2017-Jul-28 14:30N 69°42' E 018°54'0 0.4
2017-Jul-28 13:59N 69°41' E 018°54'0 0.2
2017-Jul-28 13:28N 69°41' E 018°54'0 0.0
2017-Jul-28 13:00N 69°41' E 018°54'0 0.0
2017-Jul-28 12:30N 69°41' E 018°54'0 0.1
2017-Jul-28 12:00N 69°41' E 018°54'4 7.6
2017-Jul-28 11:30N 69°38' E 018°54'2 3.1
2017-Jul-28 11:00N 69°39' E 018°57'0 0.0
2017-Jul-28 10:30N 69°39' E 018°57'0 0.0
2017-Jul-28 09:59N 69°39' E 018°57'0 0.0
2017-Jul-28 09:29N 69°39' E 018°57'0 0.0
2017-Jul-28 08:59N 69°39' E 018°57'0 0.6
2017-Jul-28 08:30N 69°39' E 018°58'0 0.3
2017-Jul-28 08:00N 69°38' E 018°58'0 0.0
2017-Jul-28 07:30N 69°39' E 018°58'0 0.2
2017-Jul-28 07:00N 69°38' E 018°58'0 0.3
2017-Jul-28 06:30N 69°38' E 018°58'0 0.5
2017-Jul-28 06:00N 69°39' E 018°57'0 0.0
2017-Jul-28 05:30N 69°39' E 018°57'0 0.0
2017-Jul-28 04:59N 69°39' E 018°57'0 0.0
2017-Jul-28 04:30N 69°39' E 018°57'0 0.0
2017-Jul-28 04:00N 69°39' E 018°57'0 0.0
2017-Jul-28 03:30N 69°39' E 018°57'0 0.0
2017-Jul-28 03:00N 69°39' E 018°57'0 0.0
2017-Jul-28 02:30N 69°39' E 018°57'0 0.0
2017-Jul-28 02:00N 69°39' E 018°57'0 0.0
2017-Jul-28 01:28N 69°39' E 018°57'0 0.0
2017-Jul-28 01:00N 69°39' E 018°57'0 0.0
2017-Jul-28 00:30N 69°39' E 018°57'0 0.0
2017-Jul-28 00:00N 69°39' E 018°57'0 0.0
2017-Jul-27 23:30N 69°39' E 018°57'0 0.0
2017-Jul-27 23:00N 69°39' E 018°57'0 0.0
2017-Jul-27 22:28N 69°39' E 018°57'0 0.0
2017-Jul-27 22:00N 69°39' E 018°57'0 0.0
2017-Jul-27 21:30N 69°39' E 018°57'0 0.0
2017-Jul-27 21:00N 69°39' E 018°57'0 0.0
2017-Jul-27 20:30N 69°39' E 018°57'0 0.0
2017-Jul-27 20:01N 69°39' E 018°57'0 0.0
2017-Jul-27 19:30N 69°39' E 018°57'0 0.0
2017-Jul-27 19:00N 69°39' E 018°57'0 0.0
2017-Jul-27 18:30N 69°39' E 018°57'0 0.0
2017-Jul-27 18:00N 69°39' E 018°57'0 0.0
2017-Jul-27 17:30N 69°39' E 018°57'0 0.0
2017-Jul-27 17:00N 69°39' E 018°57'0 0.0
2017-Jul-27 16:30N 69°39' E 018°57'0 0.0
2017-Jul-27 16:00N 69°39' E 018°57'0 0.0
2017-Jul-27 15:30N 69°39' E 018°57'0 0.0
2017-Jul-27 15:00N 69°39' E 018°57'0 0.2
2017-Jul-27 14:00N 69°38' E 018°57'0 0.1
2017-Jul-27 13:30N 69°39' E 018°57'0 0.7
2017-Jul-27 13:00N 69°38' E 018°58'0 0.8
2017-Jul-27 12:31N 69°39' E 018°57'0 0.0
2017-Jul-27 12:00N 69°39' E 018°57'0 0.0
2017-Jul-27 11:30N 69°39' E 018°57'0 0.7
2017-Jul-27 10:59N 69°38' E 018°57'2 5.1
2017-Jul-27 10:30N 69°40' E 018°52'2 3.3
2017-Jul-27 10:00N 69°41' E 018°54'1 1.8
2017-Jul-27 09:30N 69°42' E 018°56'5 9.6
2017-Jul-27 09:00N 69°46' E 019°04'1 2.3
2017-Jul-27 08:30N 69°47' E 019°03'2 3.8
2017-Jul-27 07:59N 69°45' E 019°04'510.0
2017-Jul-27 07:30N 69°40' E 019°01'2 4.0
2017-Jul-27 07:00N 69°39' E 018°58'0 0.1
2017-Jul-27 06:30N 69°39' E 018°58'0 0.4
2017-Jul-27 06:00N 69°39' E 018°57'0 0.0
2017-Jul-27 05:30N 69°39' E 018°57'0 0.0
2017-Jul-27 05:00N 69°39' E 018°57'0 0.0
2017-Jul-27 04:30N 69°39' E 018°57'0 0.0
2017-Jul-27 04:01N 69°39' E 018°57'0 0.0
2017-Jul-27 03:30N 69°39' E 018°57'0 0.0
2017-Jul-27 03:00N 69°39' E 018°57'0 0.0
2017-Jul-27 02:29N 69°39' E 018°57'0 0.0
2017-Jul-27 02:00N 69°39' E 018°57'0 0.0
2017-Jul-27 01:30N 69°39' E 018°57'0 0.0
2017-Jul-27 01:00N 69°39' E 018°57'0 0.0
2017-Jul-27 00:30N 69°39' E 018°57'0 0.0
2017-Jul-27 00:00N 69°39' E 018°57'0 0.0
2017-Jul-26 23:30N 69°39' E 018°57'0 0.0
2017-Jul-26 22:59N 69°39' E 018°57'0 0.0
2017-Jul-26 22:31N 69°39' E 018°57'0 0.0
2017-Jul-26 22:00N 69°39' E 018°57'0 0.0
2017-Jul-26 21:30N 69°39' E 018°57'0 0.0
2017-Jul-26 21:00N 69°39' E 018°57'0 0.0
2017-Jul-26 20:30N 69°39' E 018°57'0 0.0
2017-Jul-26 20:01N 69°39' E 018°57'0 0.0
2017-Jul-26 19:30N 69°39' E 018°57'0 0.0
2017-Jul-26 19:00N 69°39' E 018°57'0 0.0
2017-Jul-26 18:30N 69°39' E 018°57'0 0.0
2017-Jul-26 18:00N 69°39' E 018°57'0 0.0
2017-Jul-26 17:31N 69°39' E 018°57'0 0.0
2017-Jul-26 17:01N 69°39' E 018°57'0 0.2
2017-Jul-26 16:30N 69°39' E 018°57'1 2.1
2017-Jul-26 16:01N 69°39' E 018°59'2 3.7
2017-Jul-26 15:30N 69°41' E 019°01'0 0.2
2017-Jul-26 15:00N 69°41' E 019°01'0 0.0
2017-Jul-26 14:00N 69°41' E 019°01'0 0.4
2017-Jul-26 13:30N 69°41' E 019°01'1 2.6
2017-Jul-26 13:01N 69°40' E 018°59'1 1.8
2017-Jul-26 12:30N 69°39' E 018°58'0 0.0
2017-Jul-26 12:00N 69°39' E 018°58'0 0.0
2017-Jul-26 11:30N 69°39' E 018°58'0 0.9
2017-Jul-26 11:00N 69°39' E 018°59'0 0.4
2017-Jul-26 10:30N 69°39' E 018°59'0 0.2
2017-Jul-26 10:00N 69°39' E 018°58'0 0.0
2017-Jul-26 09:30N 69°39' E 018°58'0 0.1
2017-Jul-26 09:00N 69°39' E 018°58'0 0.0
2017-Jul-26 08:30N 69°39' E 018°58'0 0.1
2017-Jul-26 08:00N 69°39' E 018°58'1 1.3
2017-Jul-26 07:30N 69°39' E 018°57'0 0.0
2017-Jul-26 07:00N 69°39' E 018°57'0 0.0
2017-Jul-26 06:30N 69°39' E 018°57'0 0.0
2017-Jul-26 05:59N 69°39' E 018°57'0 0.0
2017-Jul-26 05:29N 69°39' E 018°57'0 0.0
2017-Jul-26 04:59N 69°39' E 018°57'0 0.0
2017-Jul-26 04:28N 69°39' E 018°57'0 0.0
2017-Jul-26 03:58N 69°39' E 018°57'0 0.0
2017-Jul-26 03:28N 69°39' E 018°57'0 0.0
2017-Jul-26 02:58N 69°39' E 018°57'0 0.0
2017-Jul-26 02:30N 69°39' E 018°57'0 0.0
2017-Jul-26 02:00N 69°39' E 018°57'0 0.0
2017-Jul-26 01:30N 69°39' E 018°57'0 0.0
2017-Jul-26 00:59N 69°39' E 018°57'0 0.0
2017-Jul-26 00:29N 69°39' E 018°57'0 0.0
2017-Jul-25 23:59N 69°39' E 018°57'0 0.0
2017-Jul-25 23:28N 69°39' E 018°57'0 0.0
2017-Jul-25 22:58N 69°39' E 018°57'0 0.0
2017-Jul-25 22:28N 69°39' E 018°57'0 0.0
2017-Jul-25 21:58N 69°39' E 018°57'0 0.0
2017-Jul-25 21:30N 69°39' E 018°57'0 0.0
2017-Jul-25 21:00N 69°39' E 018°57'0 0.0
2017-Jul-25 20:30N 69°39' E 018°57'0 0.0
2017-Jul-25 19:59N 69°39' E 018°57'0 0.0
2017-Jul-25 19:29N 69°39' E 018°57'0 0.0
2017-Jul-25 18:59N 69°39' E 018°57'0 0.0
2017-Jul-25 18:28N 69°39' E 018°57'0 0.0
2017-Jul-25 17:58N 69°39' E 018°57'1 2.8
2017-Jul-25 17:30N 69°40' E 018°60'2 3.4
2017-Jul-25 17:00N 69°41' E 019°03'0 0.2
2017-Jul-25 16:30N 69°41' E 019°03'0 0.0
2017-Jul-25 16:00N 69°41' E 019°03'0 0.3
2017-Jul-25 15:30N 69°41' E 019°03'5 9.4
2017-Jul-25 15:00N 69°46' E 019°04'2 1.7
2017-Jul-25 14:00N 69°47' E 019°05'0 0.4
2017-Jul-25 13:30N 69°47' E 019°04'3 6.1
2017-Jul-25 13:00N 69°47' E 019°13'510.0
2017-Jul-25 12:30N 69°51' E 019°23'510.7
2017-Jul-25 12:00N 69°55' E 019°31'510.1
2017-Jul-25 11:30N 69°59' E 019°41'3 5.4
2017-Jul-25 11:00N 70°01' E 019°37'0 0.5
2017-Jul-25 10:30N 70°01' E 019°37'2 4.8
2017-Jul-25 10:00N 70°03' E 019°43'1 1.5
2017-Jul-25 09:30N 70°03' E 019°45'0 0.2
2017-Jul-25 09:00N 70°03' E 019°44'1 1.6
2017-Jul-25 08:30N 70°03' E 019°47'510.7
2017-Jul-25 08:00N 70°01' E 020°01'510.2
2017-Jul-25 07:30N 69°60' E 020°15'5 9.4
2017-Jul-25 07:00N 69°56' E 020°24'510.2
2017-Jul-25 06:30N 69°51' E 020°28'4 0.3
2017-Jul-24 17:42N 69°47' E 020°34'2 8.4
2017-Jul-24 17:30N 69°47' E 020°29'4 8.7
2017-Jul-24 17:00N 69°43' E 020°25'5 9.8
2017-Jul-24 16:30N 69°38' E 020°22'5 1.2
2017-Jul-24 12:48N 69°34' E 020°15'5 2.2
2017-Jul-24 10:33N 69°38' E 020°24'110.1
2017-Jul-24 10:28N 69°39' E 020°24'5 9.9
2017-Jul-24 09:59N 69°44' E 020°26'4 8.1
2017-Jul-24 09:30N 69°47' E 020°32'5 9.6
2017-Jul-24 08:59N 69°50' E 020°45'5 9.4
2017-Jul-24 08:30N 69°54' E 020°47'510.4
2017-Jul-24 08:00N 69°57' E 020°59'4 8.3
2017-Jul-24 07:30N 70°01' E 021°03'2 3.2
2017-Jul-24 07:00N 70°02' E 020°59'0 0.0
2017-Jul-24 06:30N 70°02' E 020°59'0 0.0
2017-Jul-23 20:19N 70°02' E 020°59'2 6.3
2017-Jul-23 20:00N 70°04' E 020°59'510.2
2017-Jul-23 19:30N 70°02' E 020°44'4 8.7
2017-Jul-23 19:00N 70°02' E 020°31'1 2.5
2017-Jul-23 18:30N 70°04' E 020°32'0 0.5
2017-Jul-23 18:00N 70°04' E 020°33'0 0.3
2017-Jul-23 17:30N 70°03' E 020°33'1 2.5
2017-Jul-23 17:00N 70°02' E 020°32'510.0
2017-Jul-23 16:30N 69°58' E 020°35'2 4.0
2017-Jul-23 16:00N 69°56' E 020°40'0 0.3
2017-Jul-23 15:30N 69°56' E 020°40'1 1.0
2017-Jul-23 15:00N 69°56' E 020°41'1 1.0
2017-Jul-23 14:30N 69°56' E 020°42'1 1.7
2017-Jul-23 14:00N 69°55' E 020°42'0 0.2
2017-Jul-23 13:30N 69°55' E 020°42'0 0.2
2017-Jul-23 13:01N 69°55' E 020°43'5 8.8
2017-Jul-23 12:30N 69°56' E 020°55'1 1.8
2017-Jul-23 12:01N 69°56' E 020°58'0 0.7
2017-Jul-23 11:30N 69°56' E 020°58'0 0.8
2017-Jul-23 11:00N 69°57' E 020°58'0 0.6
2017-Jul-23 10:30N 69°57' E 020°58'0 0.0
2017-Jul-23 10:00N 69°57' E 020°58'0 0.2
2017-Jul-23 09:30N 69°57' E 020°57'1 1.8
2017-Jul-23 08:59N 69°56' E 020°59'0 0.9
2017-Jul-23 08:30N 69°57' E 020°58'0 0.9
2017-Jul-23 08:00N 69°57' E 020°58'0 0.1
2017-Jul-23 07:30N 69°57' E 020°58'0 0.1
2017-Jul-23 07:00N 69°57' E 020°58'4 7.3
2017-Jul-23 06:30N 69°60' E 021°05'3 0.3
2017-Jul-22 21:17N 70°02' E 020°59'0 0.0
2017-Jul-22 18:20N 70°02' E 020°58'0 0.3
2017-Jul-22 18:00N 70°02' E 020°58'0 0.0
2017-Jul-22 17:29N 70°02' E 020°58'0 0.7
2017-Jul-22 17:00N 70°02' E 020°59'4 8.7
2017-Jul-22 16:30N 70°06' E 021°04'5 9.6
2017-Jul-22 16:00N 70°11' E 021°07'5 9.0
2017-Jul-22 15:29N 70°15' E 021°12'5 9.5
2017-Jul-22 15:00N 70°17' E 021°25'3 2.5
2017-Jul-22 14:00N 70°14' E 021°26'0 0.8
2017-Jul-22 13:30N 70°14' E 021°27'1 1.1
2017-Jul-22 13:00N 70°14' E 021°29'0 0.1
2017-Jul-22 12:29N 70°14' E 021°29'1 1.1
2017-Jul-22 12:00N 70°15' E 021°29'4 7.4
2017-Jul-22 11:30N 70°18' E 021°28'4 9.0
2017-Jul-22 11:00N 70°22' E 021°36'4 8.9
2017-Jul-22 10:30N 70°24' E 021°48'5 9.7
2017-Jul-22 10:00N 70°25' E 022°02'5 9.7
2017-Jul-22 09:30N 70°27' E 022°16'510.2
2017-Jul-22 09:00N 70°28' E 022°31'510.0
2017-Jul-22 08:30N 70°30' E 022°45'5 9.4
2017-Jul-22 08:00N 70°32' E 022°57'510.1
2017-Jul-22 07:30N 70°35' E 023°10'510.2
2017-Jul-22 07:00N 70°38' E 023°22'510.4
2017-Jul-22 06:29N 70°40' E 023°37'1 2.9
2017-Jul-22 06:00N 70°40' E 023°41'0 0.0
2017-Jul-22 05:30N 70°40' E 023°41'0 0.0
2017-Jul-22 05:00N 70°40' E 023°41'0 0.0
2017-Jul-22 04:29N 70°40' E 023°41'0 0.0
2017-Jul-22 03:59N 70°40' E 023°41'0 0.0
2017-Jul-22 03:29N 70°40' E 023°41'0 0.0
2017-Jul-22 02:58N 70°40' E 023°41'0 0.0
2017-Jul-22 02:28N 70°40' E 023°41'0 0.0
2017-Jul-22 01:58N 70°40' E 023°41'0 0.0
2017-Jul-22 01:31N 70°40' E 023°41'0 0.0
2017-Jul-22 01:00N 70°40' E 023°41'0 0.0
2017-Jul-22 00:30N 70°40' E 023°41'0 0.0
2017-Jul-22 00:00N 70°40' E 023°41'0 0.0
2017-Jul-21 23:29N 70°40' E 023°41'0 0.0
2017-Jul-21 22:56N 70°40' E 023°41'0 0.0
2017-Jul-21 22:29N 70°40' E 023°41'0 0.0
2017-Jul-21 21:58N 70°40' E 023°41'0 0.0
2017-Jul-21 21:28N 70°40' E 023°41'0 0.0
2017-Jul-21 20:58N 70°40' E 023°41'0 0.0
2017-Jul-21 20:28N 70°40' E 023°41'0 0.0
2017-Jul-21 20:00N 70°40' E 023°41'0 0.0
2017-Jul-21 19:30N 70°40' E 023°41'0 0.0
2017-Jul-21 19:00N 70°40' E 023°41'0 0.0
2017-Jul-21 18:29N 70°40' E 023°41'0 0.0
2017-Jul-21 17:59N 70°40' E 023°41'3 6.1
2017-Jul-21 17:29N 70°41' E 023°33'5 9.5
2017-Jul-21 17:00N 70°45' E 023°39'5 9.9
2017-Jul-21 16:30N 70°49' E 023°51'5 9.8
2017-Jul-21 16:00N 70°52' E 024°02'5 9.9
2017-Jul-21 15:30N 70°54' E 024°15'5 9.5
2017-Jul-21 15:00N 70°57' E 024°26'5 9.3
2017-Jul-21 14:30N 70°60' E 024°38'4 8.4
2017-Jul-21 14:00N 70°60' E 024°51'5 9.5
2017-Jul-21 13:30N 70°59' E 025°06'5 9.6
2017-Jul-21 13:00N 70°59' E 025°21'4 8.5
2017-Jul-21 12:30N 70°56' E 025°31'4 9.0
2017-Jul-21 12:00N 70°55' E 025°44'5 9.8
2017-Jul-21 11:30N 70°56' E 025°59'510.0
2017-Jul-21 11:00N 70°57' E 026°13'5 9.6
2017-Jul-21 10:30N 70°59' E 026°28'5 9.2
2017-Jul-21 10:00N 70°59' E 026°42'5 9.1
2017-Jul-21 09:30N 70°59' E 026°56'3 5.7
2017-Jul-21 09:00N 70°59' E 027°04'0 0.4
2017-Jul-21 08:30N 70°59' E 027°05'0 0.5
2017-Jul-21 08:00N 70°59' E 027°06'0 0.3
2017-Jul-21 07:30N 70°59' E 027°06'1 2.4
2017-Jul-21 07:00N 70°60' E 027°09'4 7.8
2017-Jul-21 06:30N 70°57' E 027°19'1 1.2
2017-Jul-21 05:59N 70°57' E 027°21'0 0.0
2017-Jul-21 05:29N 70°57' E 027°21'0 0.0
2017-Jul-21 05:00N 70°57' E 027°21'0 0.0
2017-Jul-21 04:30N 70°57' E 027°21'0 0.0
2017-Jul-21 03:59N 70°57' E 027°21'0 0.0
2017-Jul-21 03:28N 70°57' E 027°21'0 0.0
2017-Jul-21 03:00N 70°57' E 027°21'0 0.0
2017-Jul-21 02:29N 70°57' E 027°21'0 0.0
2017-Jul-21 02:00N 70°57' E 027°21'0 0.0
2017-Jul-21 01:30N 70°57' E 027°21'0 0.0
2017-Jul-21 00:58N 70°57' E 027°21'0 0.0
2017-Jul-21 00:30N 70°57' E 027°21'0 0.0
2017-Jul-20 23:59N 70°57' E 027°21'0 0.0
2017-Jul-20 23:30N 70°57' E 027°21'0 0.0
2017-Jul-20 22:59N 70°57' E 027°21'0 0.0
2017-Jul-20 22:29N 70°57' E 027°21'0 0.0
2017-Jul-20 21:59N 70°57' E 027°21'0 0.0
2017-Jul-20 21:29N 70°57' E 027°21'0 0.0
2017-Jul-20 21:00N 70°57' E 027°21'0 0.0
2017-Jul-20 20:30N 70°57' E 027°21'0 0.0
2017-Jul-20 19:58N 70°57' E 027°21'0 0.0
2017-Jul-20 19:28N 70°57' E 027°21'0 0.0
2017-Jul-20 18:58N 70°57' E 027°21'0 0.0
2017-Jul-20 18:29N 70°57' E 027°21'0 0.0
2017-Jul-20 18:00N 70°57' E 027°21'0 0.0
2017-Jul-20 17:29N 70°57' E 027°21'0 0.0
2017-Jul-20 17:00N 70°57' E 027°21'0 0.3
2017-Jul-20 16:30N 70°57' E 027°21'3 5.6
2017-Jul-20 15:59N 70°59' E 027°14'3 5.4
2017-Jul-20 15:30N 70°59' E 027°06'0 0.6
2017-Jul-20 15:00N 70°59' E 027°06'9 9.2
2017-Jul-20 14:00N 71°06' E 027°25'5 9.0
2017-Jul-20 13:30N 71°09' E 027°36'4 7.7
2017-Jul-20 13:00N 71°08' E 027°48'4 7.7
2017-Jul-20 12:30N 71°08' E 027°60'4 7.7
2017-Jul-20 12:00N 71°07' E 028°12'4 7.4
2017-Jul-20 11:29N 71°05' E 028°22'4 7.8
2017-Jul-20 11:00N 71°03' E 028°31'4 7.5
2017-Jul-20 10:30N 71°01' E 028°41'4 7.8
2017-Jul-20 10:00N 70°58' E 028°50'4 7.8
2017-Jul-20 09:30N 70°56' E 028°60'4 7.6
2017-Jul-20 09:00N 70°54' E 029°09'4 7.6
2017-Jul-20 08:30N 70°52' E 029°19'4 7.8
2017-Jul-20 08:00N 70°49' E 029°28'4 7.9
2017-Jul-20 07:30N 70°47' E 029°38'4 8.1
2017-Jul-20 07:00N 70°44' E 029°48'4 8.8
2017-Jul-20 06:30N 70°40' E 029°49'3 5.3
2017-Jul-20 06:00N 70°38' E 029°43'0 0.0
2017-Jul-20 05:30N 70°38' E 029°43'0 0.0
2017-Jul-20 05:00N 70°38' E 029°43'0 0.0
2017-Jul-20 04:30N 70°38' E 029°43'0 0.0
2017-Jul-20 04:00N 70°38' E 029°43'0 0.0
2017-Jul-20 03:30N 70°38' E 029°43'0 0.0
2017-Jul-20 03:00N 70°38' E 029°43'0 0.0
2017-Jul-20 02:30N 70°38' E 029°43'0 0.0
2017-Jul-20 02:00N 70°38' E 029°43'0 0.0
2017-Jul-20 01:30N 70°38' E 029°43'0 0.0
2017-Jul-20 01:00N 70°38' E 029°43'0 0.0
2017-Jul-20 00:30N 70°38' E 029°43'0 0.0
2017-Jul-20 00:00N 70°38' E 029°43'0 0.0
2017-Jul-19 23:30N 70°38' E 029°43'0 0.0
2017-Jul-19 23:00N 70°38' E 029°43'0 0.0
2017-Jul-19 22:30N 70°38' E 029°43'0 0.0
2017-Jul-19 21:59N 70°38' E 029°43'0 0.0
2017-Jul-19 21:30N 70°38' E 029°43'0 0.0
2017-Jul-19 21:00N 70°38' E 029°43'0 0.0
2017-Jul-19 20:30N 70°38' E 029°43'0 0.0
2017-Jul-19 20:00N 70°38' E 029°43'0 0.0
2017-Jul-19 19:30N 70°38' E 029°43'0 0.0
2017-Jul-19 19:00N 70°38' E 029°43'0 0.0
2017-Jul-19 18:30N 70°38' E 029°43'0 0.0
2017-Jul-19 18:00N 70°38' E 029°43'0 0.0
2017-Jul-19 17:30N 70°38' E 029°43'0 0.0
2017-Jul-19 17:00N 70°38' E 029°43'0 0.0
2017-Jul-19 16:30N 70°38' E 029°43'0 0.0
2017-Jul-19 16:00N 70°38' E 029°43'0 0.0
2017-Jul-19 15:30N 70°38' E 029°43'0 0.0
2017-Jul-19 15:00N 70°38' E 029°43'0 0.0
2017-Jul-19 14:30N 70°38' E 029°43'0 0.0
2017-Jul-19 14:00N 70°38' E 029°43'0 0.0
2017-Jul-19 13:30N 70°38' E 029°43'0 0.0
2017-Jul-19 13:00N 70°38' E 029°43'0 0.0
2017-Jul-19 12:30N 70°38' E 029°43'0 0.0
2017-Jul-19 12:00N 70°38' E 029°43'0 0.0
2017-Jul-19 11:30N 70°38' E 029°43'0 0.0
2017-Jul-19 11:00N 70°38' E 029°43'0 0.0
2017-Jul-19 10:29N 70°38' E 029°43'0 0.0
2017-Jul-19 10:00N 70°38' E 029°43'0 0.0
2017-Jul-19 09:30N 70°38' E 029°43'0 0.0
2017-Jul-19 09:00N 70°38' E 029°43'0 0.0
2017-Jul-19 08:30N 70°38' E 029°43'0 0.0
2017-Jul-19 08:00N 70°38' E 029°43'0 0.0
2017-Jul-19 07:30N 70°38' E 029°43'0 0.0
2017-Jul-19 07:00N 70°38' E 029°43'0 0.0
2017-Jul-19 06:30N 70°38' E 029°43'0 0.0
2017-Jul-19 06:00N 70°38' E 029°43'0 0.0
2017-Jul-19 05:30N 70°38' E 029°43'0 0.0
2017-Jul-19 05:00N 70°38' E 029°43'0 0.0
2017-Jul-19 04:30N 70°38' E 029°43'0 0.0
2017-Jul-19 04:00N 70°38' E 029°43'0 0.0
2017-Jul-19 03:30N 70°38' E 029°43'0 0.0
2017-Jul-19 03:00N 70°38' E 029°43'0 0.0
2017-Jul-19 02:30N 70°38' E 029°43'0 0.0
2017-Jul-19 02:00N 70°38' E 029°43'0 0.0
2017-Jul-19 01:30N 70°38' E 029°43'0 0.0
2017-Jul-19 01:00N 70°38' E 029°43'0 0.0
2017-Jul-19 00:30N 70°38' E 029°43'0 0.0
2017-Jul-19 00:00N 70°38' E 029°43'0 0.0
2017-Jul-18 23:30N 70°38' E 029°43'0 0.0
2017-Jul-18 23:00N 70°38' E 029°43'0 0.0
2017-Jul-18 22:30N 70°38' E 029°43'0 0.0
2017-Jul-18 22:00N 70°38' E 029°43'0 0.0
2017-Jul-18 21:30N 70°38' E 029°43'1 1.2
2017-Jul-18 20:59N 70°38' E 029°45'510.3
2017-Jul-18 20:30N 70°42' E 029°55'4 8.7
2017-Jul-18 20:00N 70°43' E 030°08'2 4.7
2017-Jul-18 19:30N 70°42' E 030°15'0 0.9
2017-Jul-18 19:00N 70°41' E 030°16'1 1.2
2017-Jul-18 18:30N 70°41' E 030°17'1 1.2
2017-Jul-18 18:00N 70°41' E 030°19'0 0.9
2017-Jul-18 17:30N 70°40' E 030°20'2 2.9
2017-Jul-18 16:41N 70°39' E 030°13'2 9.7
2017-Jul-18 16:30N 70°41' E 030°15'2 3.0
2017-Jul-18 16:00N 70°40' E 030°20'2 3.2
2017-Jul-18 15:30N 70°40' E 030°15'2 3.2
2017-Jul-18 15:00N 70°40' E 030°20'  
Track history (hours):
 
Tides and Currents Weather Stations Pressure Air Temp Water Temp Dewpoint Dewpoint Depression Visibility Wind Speed Wind Dir Waves Ship Positions

Nautilus Survey

Last reported at 2017-Jul-28 15:00 UTC. Time now 2017-Jul-28 15:09 UTC.
Position N 69°38' E 018°53'.

Length 24 m; draft 2 m.

Type: Dredging. MMSI: 259464000.

Date/timePositionNaut miles runAvg speedWind from/ knotsBaromVisibWave heightAir tempDewpointWater temp
2017-Jul-28 15:00N 69°38' E 018°53'3 6.8
2017-Jul-28 14:30N 69°42' E 018°54'0 0.4
2017-Jul-28 13:59N 69°41' E 018°54'0 0.2
2017-Jul-28 13:28N 69°41' E 018°54'0 0.0
2017-Jul-28 13:00N 69°41' E 018°54'0 0.0
2017-Jul-28 12:30N 69°41' E 018°54'0 0.1
2017-Jul-28 12:00N 69°41' E 018°54'4 7.6
2017-Jul-28 11:30N 69°38' E 018°54'2 3.1
2017-Jul-28 11:00N 69°39' E 018°57'0 0.0
2017-Jul-28 10:30N 69°39' E 018°57'0 0.0
2017-Jul-28 09:59N 69°39' E 018°57'0 0.0
2017-Jul-28 09:29N 69°39' E 018°57'0 0.0
2017-Jul-28 08:59N 69°39' E 018°57'0 0.6
2017-Jul-28 08:30N 69°39' E 018°58'0 0.3
2017-Jul-28 08:00N 69°38' E 018°58'0 0.0
2017-Jul-28 07:30N 69°39' E 018°58'0 0.2
2017-Jul-28 07:00N 69°38' E 018°58'0 0.3
2017-Jul-28 06:30N 69°38' E 018°58'0 0.5
2017-Jul-28 06:00N 69°39' E 018°57'0 0.0
2017-Jul-28 05:30N 69°39' E 018°57'0 0.0
2017-Jul-28 04:59N 69°39' E 018°57'0 0.0
2017-Jul-28 04:30N 69°39' E 018°57'0 0.0
2017-Jul-28 04:00N 69°39' E 018°57'0 0.0
2017-Jul-28 03:30N 69°39' E 018°57'0 0.0
2017-Jul-28 03:00N 69°39' E 018°57'0 0.0
2017-Jul-28 02:30N 69°39' E 018°57'0 0.0
2017-Jul-28 02:00N 69°39' E 018°57'0 0.0
2017-Jul-28 01:28N 69°39' E 018°57'0 0.0
2017-Jul-28 01:00N 69°39' E 018°57'0 0.0
2017-Jul-28 00:30N 69°39' E 018°57'0 0.0
2017-Jul-28 00:00N 69°39' E 018°57'0 0.0
2017-Jul-27 23:30N 69°39' E 018°57'0 0.0
2017-Jul-27 23:00N 69°39' E 018°57'0 0.0
2017-Jul-27 22:28N 69°39' E 018°57'0 0.0
2017-Jul-27 22:00N 69°39' E 018°57'0 0.0
2017-Jul-27 21:30N 69°39' E 018°57'0 0.0
2017-Jul-27 21:00N 69°39' E 018°57'0 0.0
2017-Jul-27 20:30N 69°39' E 018°57'0 0.0
2017-Jul-27 20:01N 69°39' E 018°57'0 0.0
2017-Jul-27 19:30N 69°39' E 018°57'0 0.0
2017-Jul-27 19:00N 69°39' E 018°57'0 0.0
2017-Jul-27 18:30N 69°39' E 018°57'0 0.0
2017-Jul-27 18:00N 69°39' E 018°57'0 0.0
2017-Jul-27 17:30N 69°39' E 018°57'0 0.0
2017-Jul-27 17:00N 69°39' E 018°57'0 0.0
2017-Jul-27 16:30N 69°39' E 018°57'0 0.0
2017-Jul-27 16:00N 69°39' E 018°57'0 0.0
2017-Jul-27 15:30N 69°39' E 018°57'0 0.0
2017-Jul-27 15:00N 69°39' E 018°57'0 0.2
2017-Jul-27 14:00N 69°38' E 018°57'0 0.1
2017-Jul-27 13:30N 69°39' E 018°57'0 0.7
2017-Jul-27 13:00N 69°38' E 018°58'0 0.8
2017-Jul-27 12:31N 69°39' E 018°57'0 0.0
2017-Jul-27 12:00N 69°39' E 018°57'0 0.0
2017-Jul-27 11:30N 69°39' E 018°57'0 0.7
2017-Jul-27 10:59N 69°38' E 018°57'2 5.1
2017-Jul-27 10:30N 69°40' E 018°52'2 3.3
2017-Jul-27 10:00N 69°41' E 018°54'1 1.8
2017-Jul-27 09:30N 69°42' E 018°56'5 9.6
2017-Jul-27 09:00N 69°46' E 019°04'1 2.3
2017-Jul-27 08:30N 69°47' E 019°03'2 3.8
2017-Jul-27 07:59N 69°45' E 019°04'510.0
2017-Jul-27 07:30N 69°40' E 019°01'2 4.0
2017-Jul-27 07:00N 69°39' E 018°58'0 0.1
2017-Jul-27 06:30N 69°39' E 018°58'0 0.4
2017-Jul-27 06:00N 69°39' E 018°57'0 0.0
2017-Jul-27 05:30N 69°39' E 018°57'0 0.0
2017-Jul-27 05:00N 69°39' E 018°57'0 0.0
2017-Jul-27 04:30N 69°39' E 018°57'0 0.0
2017-Jul-27 04:01N 69°39' E 018°57'0 0.0
2017-Jul-27 03:30N 69°39' E 018°57'0 0.0
2017-Jul-27 03:00N 69°39' E 018°57'0 0.0
2017-Jul-27 02:29N 69°39' E 018°57'0 0.0
2017-Jul-27 02:00N 69°39' E 018°57'0 0.0
2017-Jul-27 01:30N 69°39' E 018°57'0 0.0
2017-Jul-27 01:00N 69°39' E 018°57'0 0.0
2017-Jul-27 00:30N 69°39' E 018°57'0 0.0
2017-Jul-27 00:00N 69°39' E 018°57'0 0.0
2017-Jul-26 23:30N 69°39' E 018°57'0 0.0
2017-Jul-26 22:59N 69°39' E 018°57'0 0.0
2017-Jul-26 22:31N 69°39' E 018°57'0 0.0
2017-Jul-26 22:00N 69°39' E 018°57'0 0.0
2017-Jul-26 21:30N 69°39' E 018°57'0 0.0
2017-Jul-26 21:00N 69°39' E 018°57'0 0.0
2017-Jul-26 20:30N 69°39' E 018°57'0 0.0
2017-Jul-26 20:01N 69°39' E 018°57'0 0.0
2017-Jul-26 19:30N 69°39' E 018°57'0 0.0
2017-Jul-26 19:00N 69°39' E 018°57'0 0.0
2017-Jul-26 18:30N 69°39' E 018°57'0 0.0
2017-Jul-26 18:00N 69°39' E 018°57'0 0.0
2017-Jul-26 17:31N 69°39' E 018°57'0 0.0
2017-Jul-26 17:01N 69°39' E 018°57'0 0.2
2017-Jul-26 16:30N 69°39' E 018°57'1 2.1
2017-Jul-26 16:01N 69°39' E 018°59'2 3.7
2017-Jul-26 15:30N 69°41' E 019°01'0 0.2
2017-Jul-26 15:00N 69°41' E 019°01'0 0.0
2017-Jul-26 14:00N 69°41' E 019°01'0 0.4
2017-Jul-26 13:30N 69°41' E 019°01'1 2.6
2017-Jul-26 13:01N 69°40' E 018°59'1 1.8
2017-Jul-26 12:30N 69°39' E 018°58'0 0.0
2017-Jul-26 12:00N 69°39' E 018°58'0 0.0
2017-Jul-26 11:30N 69°39' E 018°58'0 0.9
2017-Jul-26 11:00N 69°39' E 018°59'0 0.4
2017-Jul-26 10:30N 69°39' E 018°59'0 0.2
2017-Jul-26 10:00N 69°39' E 018°58'0 0.0
2017-Jul-26 09:30N 69°39' E 018°58'0 0.1
2017-Jul-26 09:00N 69°39' E 018°58'0 0.0
2017-Jul-26 08:30N 69°39' E 018°58'0 0.1
2017-Jul-26 08:00N 69°39' E 018°58'1 1.3
2017-Jul-26 07:30N 69°39' E 018°57'0 0.0
2017-Jul-26 07:00N 69°39' E 018°57'0 0.0
2017-Jul-26 06:30N 69°39' E 018°57'0 0.0
2017-Jul-26 05:59N 69°39' E 018°57'0 0.0
2017-Jul-26 05:29N 69°39' E 018°57'0 0.0
2017-Jul-26 04:59N 69°39' E 018°57'0 0.0
2017-Jul-26 04:28N 69°39' E 018°57'0 0.0
2017-Jul-26 03:58N 69°39' E 018°57'0 0.0
2017-Jul-26 03:28N 69°39' E 018°57'0 0.0
2017-Jul-26 02:58N 69°39' E 018°57'0 0.0
2017-Jul-26 02:30N 69°39' E 018°57'0 0.0
2017-Jul-26 02:00N 69°39' E 018°57'0 0.0
2017-Jul-26 01:30N 69°39' E 018°57'0 0.0
2017-Jul-26 00:59N 69°39' E 018°57'0 0.0
2017-Jul-26 00:29N 69°39' E 018°57'0 0.0
2017-Jul-25 23:59N 69°39' E 018°57'0 0.0
2017-Jul-25 23:28N 69°39' E 018°57'0 0.0
2017-Jul-25 22:58N 69°39' E 018°57'0 0.0
2017-Jul-25 22:28N 69°39' E 018°57'0 0.0
2017-Jul-25 21:58N 69°39' E 018°57'0 0.0
2017-Jul-25 21:30N 69°39' E 018°57'0 0.0
2017-Jul-25 21:00N 69°39' E 018°57'0 0.0
2017-Jul-25 20:30N 69°39' E 018°57'0 0.0
2017-Jul-25 19:59N 69°39' E 018°57'0 0.0
2017-Jul-25 19:29N 69°39' E 018°57'0 0.0
2017-Jul-25 18:59N 69°39' E 018°57'0 0.0
2017-Jul-25 18:28N 69°39' E 018°57'0 0.0
2017-Jul-25 17:58N 69°39' E 018°57'1 2.8
2017-Jul-25 17:30N 69°40' E 018°60'2 3.4
2017-Jul-25 17:00N 69°41' E 019°03'0 0.2
2017-Jul-25 16:30N 69°41' E 019°03'0 0.0
2017-Jul-25 16:00N 69°41' E 019°03'0 0.3
2017-Jul-25 15:30N 69°41' E 019°03'5 9.4
2017-Jul-25 15:00N 69°46' E 019°04'2 1.7
2017-Jul-25 14:00N 69°47' E 019°05'0 0.4
2017-Jul-25 13:30N 69°47' E 019°04'3 6.1
2017-Jul-25 13:00N 69°47' E 019°13'510.0
2017-Jul-25 12:30N 69°51' E 019°23'510.7
2017-Jul-25 12:00N 69°55' E 019°31'510.1
2017-Jul-25 11:30N 69°59' E 019°41'3 5.4
2017-Jul-25 11:00N 70°01' E 019°37'0 0.5
2017-Jul-25 10:30N 70°01' E 019°37'2 4.8
2017-Jul-25 10:00N 70°03' E 019°43'1 1.5
2017-Jul-25 09:30N 70°03' E 019°45'0 0.2
2017-Jul-25 09:00N 70°03' E 019°44'1 1.6
2017-Jul-25 08:30N 70°03' E 019°47'510.7
2017-Jul-25 08:00N 70°01' E 020°01'510.2
2017-Jul-25 07:30N 69°60' E 020°15'5 9.4
2017-Jul-25 07:00N 69°56' E 020°24'510.2
2017-Jul-25 06:30N 69°51' E 020°28'4 0.3
2017-Jul-24 17:42N 69°47' E 020°34'2 8.4
2017-Jul-24 17:30N 69°47' E 020°29'4 8.7
2017-Jul-24 17:00N 69°43' E 020°25'5 9.8
2017-Jul-24 16:30N 69°38' E 020°22'5 1.2
2017-Jul-24 12:48N 69°34' E 020°15'5 2.2
2017-Jul-24 10:33N 69°38' E 020°24'110.1
2017-Jul-24 10:28N 69°39' E 020°24'5 9.9
2017-Jul-24 09:59N 69°44' E 020°26'4 8.1
2017-Jul-24 09:30N 69°47' E 020°32'5 9.6
2017-Jul-24 08:59N 69°50' E 020°45'5 9.4
2017-Jul-24 08:30N 69°54' E 020°47'510.4
2017-Jul-24 08:00N 69°57' E 020°59'4 8.3
2017-Jul-24 07:30N 70°01' E 021°03'2 3.2
2017-Jul-24 07:00N 70°02' E 020°59'0 0.0
2017-Jul-24 06:30N 70°02' E 020°59'0 0.0
2017-Jul-23 20:19N 70°02' E 020°59'2 6.3
2017-Jul-23 20:00N 70°04' E 020°59'510.2
2017-Jul-23 19:30N 70°02' E 020°44'4 8.7
2017-Jul-23 19:00N 70°02' E 020°31'1 2.5
2017-Jul-23 18:30N 70°04' E 020°32'0 0.5
2017-Jul-23 18:00N 70°04' E 020°33'0 0.3
2017-Jul-23 17:30N 70°03' E 020°33'1 2.5
2017-Jul-23 17:00N 70°02' E 020°32'510.0
2017-Jul-23 16:30N 69°58' E 020°35'2 4.0
2017-Jul-23 16:00N 69°56' E 020°40'0 0.3
2017-Jul-23 15:30N 69°56' E 020°40'1 1.0
2017-Jul-23 15:00N 69°56' E 020°41'1 1.0
2017-Jul-23 14:30N 69°56' E 020°42'1 1.7
2017-Jul-23 14:00N 69°55' E 020°42'0 0.2
2017-Jul-23 13:30N 69°55' E 020°42'0 0.2
2017-Jul-23 13:01N 69°55' E 020°43'5 8.8
2017-Jul-23 12:30N 69°56' E 020°55'1 1.8
2017-Jul-23 12:01N 69°56' E 020°58'0 0.7
2017-Jul-23 11:30N 69°56' E 020°58'0 0.8
2017-Jul-23 11:00N 69°57' E 020°58'0 0.6
2017-Jul-23 10:30N 69°57' E 020°58'0 0.0
2017-Jul-23 10:00N 69°57' E 020°58'0 0.2
2017-Jul-23 09:30N 69°57' E 020°57'1 1.8
2017-Jul-23 08:59N 69°56' E 020°59'0 0.9
2017-Jul-23 08:30N 69°57' E 020°58'0 0.9
2017-Jul-23 08:00N 69°57' E 020°58'0 0.1
2017-Jul-23 07:30N 69°57' E 020°58'0 0.1
2017-Jul-23 07:00N 69°57' E 020°58'4 7.3
2017-Jul-23 06:30N 69°60' E 021°05'3 0.3
2017-Jul-22 21:17N 70°02' E 020°59'0 0.0
2017-Jul-22 18:20N 70°02' E 020°58'0 0.3
2017-Jul-22 18:00N 70°02' E 020°58'0 0.0
2017-Jul-22 17:29N 70°02' E 020°58'0 0.7
2017-Jul-22 17:00N 70°02' E 020°59'4 8.7
2017-Jul-22 16:30N 70°06' E 021°04'5 9.6
2017-Jul-22 16:00N 70°11' E 021°07'5 9.0
2017-Jul-22 15:29N 70°15' E 021°12'5 9.5
2017-Jul-22 15:00N 70°17' E 021°25'3 2.5
2017-Jul-22 14:00N 70°14' E 021°26'0 0.8
2017-Jul-22 13:30N 70°14' E 021°27'1 1.1
2017-Jul-22 13:00N 70°14' E 021°29'0 0.1
2017-Jul-22 12:29N 70°14' E 021°29'1 1.1
2017-Jul-22 12:00N 70°15' E 021°29'4 7.4
2017-Jul-22 11:30N 70°18' E 021°28'4 9.0
2017-Jul-22 11:00N 70°22' E 021°36'4 8.9
2017-Jul-22 10:30N 70°24' E 021°48'5 9.7
2017-Jul-22 10:00N 70°25' E 022°02'5 9.7
2017-Jul-22 09:30N 70°27' E 022°16'510.2
2017-Jul-22 09:00N 70°28' E 022°31'510.0
2017-Jul-22 08:30N 70°30' E 022°45'5 9.4
2017-Jul-22 08:00N 70°32' E 022°57'510.1
2017-Jul-22 07:30N 70°35' E 023°10'510.2
2017-Jul-22 07:00N 70°38' E 023°22'510.4
2017-Jul-22 06:29N 70°40' E 023°37'1 2.9
2017-Jul-22 06:00N 70°40' E 023°41'0 0.0
2017-Jul-22 05:30N 70°40' E 023°41'0 0.0
2017-Jul-22 05:00N 70°40' E 023°41'0 0.0
2017-Jul-22 04:29N 70°40' E 023°41'0 0.0
2017-Jul-22 03:59N 70°40' E 023°41'0 0.0
2017-Jul-22 03:29N 70°40' E 023°41'0 0.0
2017-Jul-22 02:58N 70°40' E 023°41'0 0.0
2017-Jul-22 02:28N 70°40' E 023°41'0 0.0
2017-Jul-22 01:58N 70°40' E 023°41'0 0.0
2017-Jul-22 01:31N 70°40' E 023°41'0 0.0
2017-Jul-22 01:00N 70°40' E 023°41'0 0.0
2017-Jul-22 00:30N 70°40' E 023°41'0 0.0
2017-Jul-22 00:00N 70°40' E 023°41'0 0.0
2017-Jul-21 23:29N 70°40' E 023°41'0 0.0
2017-Jul-21 22:56N 70°40' E 023°41'0 0.0
2017-Jul-21 22:29N 70°40' E 023°41'0 0.0
2017-Jul-21 21:58N 70°40' E 023°41'0 0.0
2017-Jul-21 21:28N 70°40' E 023°41'0 0.0
2017-Jul-21 20:58N 70°40' E 023°41'0 0.0
2017-Jul-21 20:28N 70°40' E 023°41'0 0.0
2017-Jul-21 20:00N 70°40' E 023°41'0 0.0
2017-Jul-21 19:30N 70°40' E 023°41'0 0.0
2017-Jul-21 19:00N 70°40' E 023°41'0 0.0
2017-Jul-21 18:29N 70°40' E 023°41'0 0.0
2017-Jul-21 17:59N 70°40' E 023°41'3 6.1
2017-Jul-21 17:29N 70°41' E 023°33'5 9.5
2017-Jul-21 17:00N 70°45' E 023°39'5 9.9
2017-Jul-21 16:30N 70°49' E 023°51'5 9.8
2017-Jul-21 16:00N 70°52' E 024°02'5 9.9
2017-Jul-21 15:30N 70°54' E 024°15'5 9.5
2017-Jul-21 15:00N 70°57' E 024°26'5 9.3
2017-Jul-21 14:30N 70°60' E 024°38'4 8.4
2017-Jul-21 14:00N 70°60' E 024°51'5 9.5
2017-Jul-21 13:30N 70°59' E 025°06'5 9.6
2017-Jul-21 13:00N 70°59' E 025°21'4 8.5
2017-Jul-21 12:30N 70°56' E 025°31'4 9.0
2017-Jul-21 12:00N 70°55' E 025°44'5 9.8
2017-Jul-21 11:30N 70°56' E 025°59'510.0
2017-Jul-21 11:00N 70°57' E 026°13'5 9.6
2017-Jul-21 10:30N 70°59' E 026°28'5 9.2
2017-Jul-21 10:00N 70°59' E 026°42'5 9.1
2017-Jul-21 09:30N 70°59' E 026°56'3 5.7
2017-Jul-21 09:00N 70°59' E 027°04'0 0.4
2017-Jul-21 08:30N 70°59' E 027°05'0 0.5
2017-Jul-21 08:00N 70°59' E 027°06'0 0.3
2017-Jul-21 07:30N 70°59' E 027°06'1 2.4
2017-Jul-21 07:00N 70°60' E 027°09'4 7.8
2017-Jul-21 06:30N 70°57' E 027°19'1 1.2
2017-Jul-21 05:59N 70°57' E 027°21'0 0.0
2017-Jul-21 05:29N 70°57' E 027°21'0 0.0
2017-Jul-21 05:00N 70°57' E 027°21'0 0.0
2017-Jul-21 04:30N 70°57' E 027°21'0 0.0
2017-Jul-21 03:59N 70°57' E 027°21'0 0.0
2017-Jul-21 03:28N 70°57' E 027°21'0 0.0
2017-Jul-21 03:00N 70°57' E 027°21'0 0.0
2017-Jul-21 02:29N 70°57' E 027°21'0 0.0
2017-Jul-21 02:00N 70°57' E 027°21'0 0.0
2017-Jul-21 01:30N 70°57' E 027°21'0 0.0
2017-Jul-21 00:58N 70°57' E 027°21'0 0.0
2017-Jul-21 00:30N 70°57' E 027°21'0 0.0
2017-Jul-20 23:59N 70°57' E 027°21'0 0.0
2017-Jul-20 23:30N 70°57' E 027°21'0 0.0
2017-Jul-20 22:59N 70°57' E 027°21'0 0.0
2017-Jul-20 22:29N 70°57' E 027°21'0 0.0
2017-Jul-20 21:59N 70°57' E 027°21'0 0.0
2017-Jul-20 21:29N 70°57' E 027°21'0 0.0
2017-Jul-20 21:00N 70°57' E 027°21'0 0.0
2017-Jul-20 20:30N 70°57' E 027°21'0 0.0
2017-Jul-20 19:58N 70°57' E 027°21'0 0.0
2017-Jul-20 19:28N 70°57' E 027°21'0 0.0
2017-Jul-20 18:58N 70°57' E 027°21'0 0.0
2017-Jul-20 18:29N 70°57' E 027°21'0 0.0
2017-Jul-20 18:00N 70°57' E 027°21'0 0.0
2017-Jul-20 17:29N 70°57' E 027°21'0 0.0
2017-Jul-20 17:00N 70°57' E 027°21'0 0.3
2017-Jul-20 16:30N 70°57' E 027°21'3 5.6
2017-Jul-20 15:59N 70°59' E 027°14'3 5.4
2017-Jul-20 15:30N 70°59' E 027°06'0 0.6
2017-Jul-20 15:00N 70°59' E 027°06'9 9.2
2017-Jul-20 14:00N 71°06' E 027°25'5 9.0
2017-Jul-20 13:30N 71°09' E 027°36'4 7.7
2017-Jul-20 13:00N 71°08' E 027°48'4 7.7
2017-Jul-20 12:30N 71°08' E 027°60'4 7.7
2017-Jul-20 12:00N 71°07' E 028°12'4 7.4
2017-Jul-20 11:29N 71°05' E 028°22'4 7.8
2017-Jul-20 11:00N 71°03' E 028°31'4 7.5
2017-Jul-20 10:30N 71°01' E 028°41'4 7.8
2017-Jul-20 10:00N 70°58' E 028°50'4 7.8
2017-Jul-20 09:30N 70°56' E 028°60'4 7.6
2017-Jul-20 09:00N 70°54' E 029°09'4 7.6
2017-Jul-20 08:30N 70°52' E 029°19'4 7.8
2017-Jul-20 08:00N 70°49' E 029°28'4 7.9
2017-Jul-20 07:30N 70°47' E 029°38'4 8.1
2017-Jul-20 07:00N 70°44' E 029°48'4 8.8
2017-Jul-20 06:30N 70°40' E 029°49'3 5.3
2017-Jul-20 06:00N 70°38' E 029°43'0 0.0
2017-Jul-20 05:30N 70°38' E 029°43'0 0.0
2017-Jul-20 05:00N 70°38' E 029°43'0 0.0
2017-Jul-20 04:30N 70°38' E 029°43'0 0.0
2017-Jul-20 04:00N 70°38' E 029°43'0 0.0
2017-Jul-20 03:30N 70°38' E 029°43'0 0.0
2017-Jul-20 03:00N 70°38' E 029°43'0 0.0
2017-Jul-20 02:30N 70°38' E 029°43'0 0.0
2017-Jul-20 02:00N 70°38' E 029°43'0 0.0
2017-Jul-20 01:30N 70°38' E 029°43'0 0.0
2017-Jul-20 01:00N 70°38' E 029°43'0 0.0
2017-Jul-20 00:30N 70°38' E 029°43'0 0.0
2017-Jul-20 00:00N 70°38' E 029°43'0 0.0
2017-Jul-19 23:30N 70°38' E 029°43'0 0.0
2017-Jul-19 23:00N 70°38' E 029°43'0 0.0
2017-Jul-19 22:30N 70°38' E 029°43'0 0.0
2017-Jul-19 21:59N 70°38' E 029°43'0 0.0
2017-Jul-19 21:30N 70°38' E 029°43'0 0.0
2017-Jul-19 21:00N 70°38' E 029°43'0 0.0
2017-Jul-19 20:30N 70°38' E 029°43'0 0.0
2017-Jul-19 20:00N 70°38' E 029°43'0 0.0
2017-Jul-19 19:30N 70°38' E 029°43'0 0.0
2017-Jul-19 19:00N 70°38' E 029°43'0 0.0
2017-Jul-19 18:30N 70°38' E 029°43'0 0.0
2017-Jul-19 18:00N 70°38' E 029°43'0 0.0
2017-Jul-19 17:30N 70°38' E 029°43'0 0.0
2017-Jul-19 17:00N 70°38' E 029°43'0 0.0
2017-Jul-19 16:30N 70°38' E 029°43'0 0.0
2017-Jul-19 16:00N 70°38' E 029°43'0 0.0
2017-Jul-19 15:30N 70°38' E 029°43'0 0.0
2017-Jul-19 15:00N 70°38' E 029°43'0 0.0
2017-Jul-19 14:30N 70°38' E 029°43'0 0.0
2017-Jul-19 14:00N 70°38' E 029°43'0 0.0
2017-Jul-19 13:30N 70°38' E 029°43'0 0.0
2017-Jul-19 13:00N 70°38' E 029°43'0 0.0
2017-Jul-19 12:30N 70°38' E 029°43'0 0.0
2017-Jul-19 12:00N 70°38' E 029°43'0 0.0
2017-Jul-19 11:30N 70°38' E 029°43'0 0.0
2017-Jul-19 11:00N 70°38' E 029°43'0 0.0
2017-Jul-19 10:29N 70°38' E 029°43'0 0.0
2017-Jul-19 10:00N 70°38' E 029°43'0 0.0
2017-Jul-19 09:30N 70°38' E 029°43'0 0.0
2017-Jul-19 09:00N 70°38' E 029°43'0 0.0
2017-Jul-19 08:30N 70°38' E 029°43'0 0.0
2017-Jul-19 08:00N 70°38' E 029°43'0 0.0
2017-Jul-19 07:30N 70°38' E 029°43'0 0.0
2017-Jul-19 07:00N 70°38' E 029°43'0 0.0
2017-Jul-19 06:30N 70°38' E 029°43'0 0.0
2017-Jul-19 06:00N 70°38' E 029°43'0 0.0
2017-Jul-19 05:30N 70°38' E 029°43'0 0.0
2017-Jul-19 05:00N 70°38' E 029°43'0 0.0
2017-Jul-19 04:30N 70°38' E 029°43'0 0.0
2017-Jul-19 04:00N 70°38' E 029°43'0 0.0
2017-Jul-19 03:30N 70°38' E 029°43'0 0.0
2017-Jul-19 03:00N 70°38' E 029°43'0 0.0
2017-Jul-19 02:30N 70°38' E 029°43'0 0.0
2017-Jul-19 02:00N 70°38' E 029°43'0 0.0
2017-Jul-19 01:30N 70°38' E 029°43'0 0.0
2017-Jul-19 01:00N 70°38' E 029°43'0 0.0
2017-Jul-19 00:30N 70°38' E 029°43'0 0.0
2017-Jul-19 00:00N 70°38' E 029°43'0 0.0
2017-Jul-18 23:30N 70°38' E 029°43'0 0.0
2017-Jul-18 23:00N 70°38' E 029°43'0 0.0
2017-Jul-18 22:30N 70°38' E 029°43'0 0.0
2017-Jul-18 22:00N 70°38' E 029°43'0 0.0
2017-Jul-18 21:30N 70°38' E 029°43'1 1.2
2017-Jul-18 20:59N 70°38' E 029°45'510.3
2017-Jul-18 20:30N 70°42' E 029°55'4 8.7
2017-Jul-18 20:00N 70°43' E 030°08'2 4.7
2017-Jul-18 19:30N 70°42' E 030°15'0 0.9
2017-Jul-18 19:00N 70°41' E 030°16'1 1.2
2017-Jul-18 18:30N 70°41' E 030°17'1 1.2
2017-Jul-18 18:00N 70°41' E 030°19'0 0.9
2017-Jul-18 17:30N 70°40' E 030°20'2 2.9
2017-Jul-18 16:41N 70°39' E 030°13'2 9.7
2017-Jul-18 16:30N 70°41' E 030°15'2 3.0
2017-Jul-18 16:00N 70°40' E 030°20'2 3.2
2017-Jul-18 15:30N 70°40' E 030°15'2 3.2
2017-Jul-18 15:00N 70°40' E 030°20'  

Dump ship's entire track history